Time;durP1;ratioP1;P1;durP2;ratioP2;P2;SDS_P1;SDS_P2;PMS_P1;PMS_P2;Temp;Humidity;BMP_temperature;BMP_pressure;BME280_temperature;BME280_humidity;BME280_pressure;Samples;Min_cycle;Max_cycle;Signal;HPM_P1;HPM_P2
2022/05/19 00:01:57;;;;;;;3.77;2.60;;;19.00;99.90;;;;;;20902859;28;20037;-77
2022/05/19 00:12:01;;;;;;;5.43;2.47;;;19.00;99.90;;;;;;20920038;28;20509;-77
2022/05/19 00:22:02;;;;;;;5.03;2.70;;;19.00;99.90;;;;;;20919127;28;20443;-78
2022/05/19 00:32:03;;;;;;;;;;;18.50;99.90;;;;;;20900697;28;20499;-76
2022/05/19 00:52:36;;;;;;;7.00;2.83;;;17.60;99.90;;;;;;20899438;28;20094;-76
2022/05/19 01:02:41;;;;;;;5.07;2.70;;;17.50;99.90;;;;;;20897360;28;20176;-76
2022/05/19 01:12:46;;;;;;;3.63;2.58;;;17.60;99.90;;;;;;20914674;28;20036;-76
2022/05/19 01:23:13;;;;;;;5.38;2.75;;;17.40;99.90;;;;;;20917854;28;20037;-76
2022/05/19 01:33:13;;;;;;;9.95;3.00;;;17.40;99.90;;;;;;20913369;28;20086;-76
2022/05/19 01:43:35;;;;;;;7.13;2.83;;;17.20;99.90;;;;;;20912887;28;20037;-76
2022/05/19 01:53:56;;;;;;;4.93;2.63;;;17.20;99.90;;;;;;20912285;28;20124;-76
2022/05/19 02:04:27;;;;;;;5.82;2.55;;;16.90;99.90;;;;;;20911700;28;20275;-76
2022/05/19 02:14:31;;;;;;;8.82;3.33;;;16.60;99.90;;;;;;20907260;28;20036;-76
2022/05/19 02:24:36;;;;;;;6.00;3.22;;;16.40;99.90;;;;;;20892047;28;20476;-76
2022/05/19 02:34:37;;;;;;;3.35;2.85;;;16.40;99.90;;;;;;20909304;28;20043;-76
2022/05/19 02:44:37;;;;;;;6.90;3.00;;;16.10;99.90;;;;;;20908494;28;20479;-76
2022/05/19 02:54:38;;;;;;;3.53;2.50;;;16.20;99.90;;;;;;20909085;28;20029;-76
2022/05/19 03:04:39;;;;;;;3.13;2.73;;;16.10;99.90;;;;;;20893069;23;20563;-75
2022/05/19 03:14:40;;;;;;;5.40;2.97;;;15.90;99.90;;;;;;20824956;28;20076;-75
2022/05/19 03:24:41;;;;;;;3.30;2.70;;;16.00;99.90;;;;;;20824424;28;20029;-74
2022/05/19 03:34:42;;;;;;;4.87;3.23;;;16.10;99.90;;;;;;20838296;28;20118;-76
2022/05/19 03:44:45;;;;;;;7.95;3.10;;;16.10;99.90;;;;;;20839570;28;20033;-76
2022/05/19 03:54:46;;;;;;;3.73;2.90;;;16.00;99.90;;;;;;20821234;28;20442;-75
2022/05/19 04:04:47;;;;;;;4.70;2.97;;;16.20;99.90;;;;;;20820258;28;20065;-75
2022/05/19 04:14:49;;;;;;;5.50;3.10;;;16.00;99.90;;;;;;20837514;28;20032;-75
2022/05/19 04:24:50;;;;;;;9.82;2.75;;;16.10;99.90;;;;;;20836508;28;20032;-76
2022/05/19 04:34:51;;;;;;;3.80;2.53;;;16.50;99.90;;;;;;20835538;28;20029;-76
2022/05/19 04:44:54;;;;;;;3.90;2.57;;;16.60;99.90;;;;;;20834094;28;20503;-76
2022/05/19 04:54:55;;;;;;;9.20;3.45;;;16.50;99.90;;;;;;20834429;28;20388;-75
2022/05/19 05:04:58;;;;;;;5.30;3.17;;;16.70;99.90;;;;;;20833492;28;20076;-75
2022/05/19 05:14:59;;;;;;;5.22;3.50;;;16.70;99.90;;;;;;20833001;28;20032;-76
2022/05/19 05:25:02;;;;;;;4.90;4.20;;;16.70;99.90;;;;;;20832165;28;20025;-75
2022/05/19 05:35:05;;;;;;;8.48;3.92;;;16.80;99.90;;;;;;20831023;28;20040;-76
2022/05/19 05:45:07;;;;;;;8.30;4.75;;;17.10;99.90;;;;;;20829698;28;20021;-76
2022/05/19 05:55:08;;;;;;;9.38;4.13;;;17.20;99.90;;;;;;20828122;28;20680;-76
2022/05/19 06:05:12;;;;;;;12.77;4.40;;;17.50;99.90;;;;;;20828847;28;20083;-74
2022/05/19 06:15:14;;;;;;;8.77;3.60;;;17.90;99.90;;;;;;20807953;28;20025;-76
2022/05/19 06:25:18;;;;;;;28.55;4.82;;;18.40;99.90;;;;;;20824164;28;20075;-76
2022/05/19 06:35:23;;;;;;;6.25;3.17;;;18.90;99.90;;;;;;20826494;28;20063;-76
2022/05/19 06:45:26;;;;;;;5.18;3.65;;;19.50;99.90;;;;;;20824682;28;20029;-74
2022/05/19 06:55:28;;;;;;;10.05;3.78;;;19.90;99.90;;;;;;20825233;28;20025;-75
2022/05/19 07:05:33;;;;;;;7.60;3.25;;;20.10;99.90;;;;;;20824049;28;20034;-76
2022/05/19 07:15:34;;;;;;;5.97;3.63;;;20.60;99.90;;;;;;20832402;28;20035;-76
2022/05/19 07:25:35;;;;;;;6.87;3.27;;;21.70;99.90;;;;;;20824576;28;20491;-75
2022/05/19 07:35:36;;;;;;;6.45;3.00;;;22.40;99.90;;;;;;20824586;28;20025;-76
2022/05/19 07:45:37;;;;;;;;;;;22.70;99.90;;;;;;20822717;28;20029;-75
2022/05/19 07:55:40;;;;;;;8.13;3.00;;;23.20;99.90;;;;;;20823362;28;19948;-76
2022/05/19 08:05:41;;;;;;;6.93;3.30;;;24.00;99.90;;;;;;20822116;28;20443;-76
2022/05/19 08:15:42;;;;;;;;;;;24.40;99.90;;;;;;20828816;28;20022;-76
2022/05/19 08:25:44;;;;;;;5.33;3.27;;;25.30;99.90;;;;;;20836787;28;20748;-76
2022/05/19 08:35:45;;;;;;;7.43;2.88;;;25.30;99.90;;;;;;20835842;28;20120;-76
2022/05/19 08:45:52;;;;;;;9.55;3.25;;;26.50;99.90;;;;;;20835391;28;20042;-75
2022/05/19 08:56:00;;;;;;;3.63;2.88;;;26.20;99.90;;;;;;20834210;28;20037;-76
2022/05/19 09:06:06;;;;;;;14.90;3.83;;;26.30;99.90;;;;;;20906257;23;20063;-75
2022/05/19 09:16:14;;;;;;;11.98;3.40;;;27.10;99.90;;;;;;20915435;28;20025;-74
2022/05/19 09:26:32;;;;;;;7.10;3.10;;;27.60;99.90;;;;;;20914338;28;20041;-75
2022/05/19 09:36:41;;;;;;;7.32;3.05;;;28.90;99.90;;;;;;20896236;28;20469;-75
2022/05/19 09:46:52;;;;;;;11.15;3.50;;;29.50;99.90;;;;;;20912941;28;20042;-75
2022/05/19 09:57:09;;;;;;;7.93;3.50;;;29.10;99.90;;;;;;20912500;28;20048;-75
2022/05/19 10:07:24;;;;;;;4.72;3.00;;;29.30;99.90;;;;;;20920761;28;20028;-75
2022/05/19 10:17:50;;;;;;;8.32;3.47;;;30.60;99.90;;;;;;20909725;28;20047;-75
2022/05/19 10:39:15;;;;;;;9.73;3.10;;;32.10;99.90;;;;;;20901947;28;20037;-75
2022/05/19 10:49:52;;;;;;;6.70;2.80;;;32.60;99.90;;;;;;20907358;28;20112;-75
2022/05/19 11:00:05;;;;;;;4.35;2.65;;;32.50;99.90;;;;;;20908033;28;20036;-75
2022/05/19 11:10:25;;;;;;;8.13;2.72;;;33.20;99.90;;;;;;20907849;28;20035;-75
2022/05/19 11:20:32;;;;;;;5.73;2.57;;;33.20;99.90;;;;;;20889791;28;20244;-74
2022/05/19 11:30:39;;;;;;;4.80;2.80;;;32.60;99.90;;;;;;20905804;28;20029;-74
2022/05/19 11:40:57;;;;;;;3.03;2.03;;;32.60;99.90;;;;;;20891870;28;20063;-75
2022/05/19 12:01:38;;;;;;;5.25;2.60;;;31.60;99.90;;;;;;20924095;28;20037;-75
2022/05/19 12:11:45;;;;;;;11.65;1.73;;;31.50;97.50;;;;;;20909664;28;20514;-75
2022/05/19 12:21:46;;;;;;;4.53;1.77;;;31.50;98.90;;;;;;20927419;28;20266;-76
2022/05/19 12:31:59;;;;;;;4.05;2.05;;;31.30;99.40;;;;;;20921144;28;20545;-75
2022/05/19 12:42:23;;;;;;;6.90;1.90;;;31.50;97.70;;;;;;20914945;28;20094;-75
2022/05/19 12:52:44;;;;;;;8.02;1.42;;;31.50;98.30;;;;;;20914109;28;20033;-75
2022/05/19 13:03:09;;;;;;;3.08;1.50;;;31.60;97.10;;;;;;20857572;28;1124835;-76
2022/05/19 13:13:32;;;;;;;11.50;2.80;;;32.40;96.60;;;;;;20916714;28;20124;-75
2022/05/19 13:23:37;;;;;;;14.32;3.10;;;31.20;99.90;;;;;;20916044;28;20392;-75
2022/05/19 13:33:40;;;;;;;13.05;2.85;;;29.90;99.90;;;;;;20914415;28;20021;-74
2022/05/19 13:43:50;;;;;;;9.07;2.30;;;27.80;99.90;;;;;;20916773;28;20100;-75
2022/05/19 13:54:13;;;;;;;8.70;2.50;;;26.80;99.90;;;;;;20923242;28;20044;-76
2022/05/19 14:04:18;;;;;;;11.90;2.92;;;25.30;99.90;;;;;;20900257;28;20033;-76
2022/05/19 14:14:23;;;;;;;7.80;3.20;;;24.80;99.90;;;;;;20895125;28;20024;-74
2022/05/19 14:24:24;;;;;;;10.25;3.55;;;25.60;99.90;;;;;;20913143;28;20056;-75
2022/05/19 14:34:29;;;;;;;15.35;4.18;;;26.00;99.90;;;;;;20895947;28;20048;-75
2022/05/19 14:44:32;;;;;;;10.30;4.25;;;26.40;99.90;;;;;;20918253;28;20056;-74
2022/05/19 14:54:39;;;;;;;16.90;4.18;;;26.50;99.90;;;;;;20912967;28;20031;-75
2022/05/19 15:04:39;;;;;;;7.07;3.13;;;26.50;99.90;;;;;;20901471;28;20036;-75
2022/05/19 15:14:41;;;;;;;9.65;4.00;;;26.50;99.90;;;;;;20954800;28;20028;-74
2022/05/19 15:24:52;;;;;;;9.77;4.40;;;26.20;99.90;;;;;;20878711;28;20064;-75
2022/05/19 15:34:54;;;;;;;9.80;4.20;;;26.10;99.90;;;;;;20911870;28;20059;-75
2022/05/19 15:44:55;;;;;;;5.85;3.65;;;26.50;99.90;;;;;;20894837;28;20511;-75
2022/05/19 15:54:55;;;;;;;12.27;3.50;;;26.90;99.90;;;;;;20946306;28;20033;-75
2022/05/19 16:04:56;;;;;;;9.95;3.58;;;26.50;99.90;;;;;;20915327;28;20043;-75
2022/05/19 16:14:59;;;;;;;9.98;3.53;;;26.20;99.90;;;;;;20901847;28;20040;-75
2022/05/19 16:25:04;;;;;;;6.97;3.05;;;26.00;99.90;;;;;;20925521;28;20032;-74
2022/05/19 16:35:05;;;;;;;7.72;3.03;;;26.40;99.90;;;;;;20914418;28;20091;-73
2022/05/19 16:45:08;;;;;;;7.18;2.97;;;26.40;99.90;;;;;;20895420;28;20458;-75
2022/05/19 17:05:33;;;;;;;7.80;3.25;;;26.10;99.90;;;;;;20895714;28;20082;-75
2022/05/19 17:15:35;;;;;;;7.60;3.35;;;26.30;99.90;;;;;;20896444;28;20514;-75
2022/05/19 17:25:39;;;;;;;8.52;3.17;;;26.70;99.90;;;;;;20894732;28;20391;-74
2022/05/19 17:35:43;;;;;;;14.25;3.28;;;27.10;99.90;;;;;;20862881;28;20036;-74
2022/05/19 17:45:48;;;;;;;10.90;3.53;;;26.70;99.90;;;;;;20909627;28;20021;-74
2022/05/19 17:55:50;;;;;;;8.30;4.18;;;26.50;99.90;;;;;;20893096;28;20037;-75
2022/05/19 18:05:51;;;;;;;4.10;2.53;;;26.20;99.90;;;;;;20918970;28;20029;-75
2022/05/19 18:26:15;;;;;;;8.63;3.20;;;25.50;99.90;;;;;;20913905;28;20111;-74
2022/05/19 18:36:18;;;;;;;5.38;2.95;;;25.10;99.90;;;;;;20908981;28;20086;-75
2022/05/19 18:46:20;;;;;;;5.68;2.47;;;24.60;99.90;;;;;;20907611;28;20584;-74
2022/05/19 18:56:22;;;;;;;7.70;3.22;;;23.90;99.90;;;;;;20907647;28;20039;-74
2022/05/19 19:06:27;;;;;;;5.15;2.50;;;23.10;99.90;;;;;;20905700;28;20040;-74
2022/05/19 19:16:28;;;;;;;6.32;2.78;;;23.40;99.90;;;;;;20907293;28;20025;-74
2022/05/19 19:26:28;;;;;;;6.37;3.43;;;22.20;99.90;;;;;;20907436;28;20094;-75
2022/05/19 19:36:30;;;;;;;5.87;3.60;;;21.30;99.90;;;;;;20910969;28;20032;-75
2022/05/19 19:46:31;;;;;;;8.48;3.72;;;21.10;99.90;;;;;;20915488;28;20052;-75
2022/05/19 19:56:32;;;;;;;6.97;3.40;;;20.60;99.90;;;;;;20921925;28;20108;-75
2022/05/19 20:06:33;;;;;;;9.27;3.90;;;20.70;99.90;;;;;;20951573;23;20041;-78
2022/05/19 20:16:36;;;;;;;12.00;4.53;;;20.60;99.90;;;;;;20898268;28;20032;-78
2022/05/19 20:26:38;;;;;;;9.48;4.57;;;20.50;99.90;;;;;;20928259;28;20033;-77
2022/05/19 20:36:39;;;;;;;8.52;3.97;;;20.10;99.90;;;;;;20926016;28;20041;-78
2022/05/19 20:46:40;;;;;;;6.43;3.90;;;20.00;99.90;;;;;;20921209;28;20017;-77
2022/05/19 20:56:41;;;;;;;8.00;3.83;;;19.90;99.90;;;;;;20912494;28;20060;-77
2022/05/19 21:06:42;;;;;;;8.88;3.40;;;19.80;99.90;;;;;;20941772;28;20060;-77
2022/05/19 21:16:43;;;;;;;4.67;3.20;;;19.60;99.90;;;;;;20926181;28;20037;-77
2022/05/19 21:26:44;;;;;;;7.07;4.30;;;19.50;99.90;;;;;;20895615;28;20395;-77
2022/05/19 21:36:45;;;;;;;10.87;5.03;;;19.50;99.90;;;;;;20913419;28;20043;-77
2022/05/19 21:46:45;;;;;;;11.87;5.03;;;19.30;99.90;;;;;;20913070;28;20549;-77
2022/05/19 21:56:46;;;;;;;10.10;4.57;;;18.90;99.90;;;;;;20912415;28;20450;-77
2022/05/19 22:17:08;;;;;;;5.70;4.10;;;19.40;99.90;;;;;;20910685;28;20390;-77
2022/05/19 22:27:09;;;;;;;11.38;4.22;;;19.30;99.90;;;;;;20892074;28;20127;-77
2022/05/19 22:37:13;;;;;;;12.10;4.00;;;19.30;99.90;;;;;;20909082;28;20544;-77
2022/05/19 22:57:33;;;;;;;6.65;4.45;;;19.00;99.90;;;;;;20907879;28;20060;-77
2022/05/19 23:07:34;;;;;;;7.93;4.07;;;18.90;99.90;;;;;;20889100;28;20085;-77
2022/05/19 23:17:35;;;;;;;6.10;4.32;;;18.80;99.90;;;;;;20888978;28;20028;-77
2022/05/19 23:27:36;;;;;;;6.00;4.20;;;18.80;99.90;;;;;;20906609;28;20059;-78
2022/05/19 23:37:37;;;;;;;7.30;4.40;;;18.60;99.90;;;;;;20906323;28;20053;-77
2022/05/19 23:47:38;;;;;;;10.67;4.40;;;18.40;99.90;;;;;;20914124;28;20147;-78
2022/05/19 23:57:39;;;;;;;6.47;4.65;;;18.40;99.90;;;;;;20921559;28;21030;-77
